< < Back
Terminal Aerodrome Forecast


Current Version              Previous Versions:   1  2  3  4  5  6  7  8  9  

Terminal Aerodrome Forecast

967
FTUS42 KMLB 201100
TAFMCO
TAF
KMCO 201128Z 2012/2112 VRB03KT P6SM FEW250
     FM201500 29007KT P6SM SCT040 SCT250
     FM210000 22005KT P6SM FEW060 FEW250=

Latest METAR

475
SAUS70 KWBC 201400
MTRMCO
METAR KMCO 201353Z 28006KT 10SM FEW016 FEW250 30/24 A3010 RMK AO2 SLP190
T03000239


USA.gov is the U.S. government's official web portal to all federal, state and local government web resources and services.